createdAt,value
2023-04-21T00:00:07.648Z,22.14
2023-04-21T00:01:07.662Z,22.14
2023-04-21T00:02:07.690Z,22.10
2023-04-21T00:03:07.860Z,22.17
2023-04-21T00:04:07.859Z,22.14
2023-04-21T00:05:07.971Z,22.13
2023-04-21T00:06:07.661Z,22.12
2023-04-21T00:07:07.662Z,22.13
2023-04-21T00:08:07.658Z,22.14
2023-04-21T00:09:07.668Z,22.10
2023-04-21T00:10:07.706Z,22.14
2023-04-21T00:11:07.677Z,22.12
2023-04-21T00:12:07.680Z,22.14
2023-04-21T00:13:07.674Z,22.12
2023-04-21T00:14:07.679Z,22.14
2023-04-21T00:15:07.707Z,22.13
2023-04-21T00:16:07.732Z,22.10
2023-04-21T00:17:07.677Z,22.13
2023-04-21T00:18:07.769Z,22.09
2023-04-21T00:19:07.724Z,22.10
2023-04-21T00:20:07.682Z,22.13
2023-04-21T00:21:07.680Z,22.19
2023-04-21T00:22:07.837Z,22.16
2023-04-21T00:23:07.683Z,22.09
2023-04-21T00:24:07.692Z,22.13
2023-04-21T00:25:07.690Z,22.13
2023-04-21T00:26:07.694Z,22.16
2023-04-21T00:27:07.696Z,22.12
2023-04-21T00:28:07.695Z,22.13
2023-04-21T00:29:07.716Z,22.07
2023-04-21T00:30:07.699Z,22.16
2023-04-21T00:31:07.857Z,22.09
2023-04-21T00:32:07.714Z,22.19
2023-04-21T00:33:07.703Z,22.10
2023-04-21T00:34:07.708Z,22.14
2023-04-21T00:35:07.711Z,22.07
2023-04-21T00:36:07.712Z,22.16
2023-04-21T00:37:07.723Z,22.09
2023-04-21T00:38:07.724Z,22.13
2023-04-21T00:39:07.717Z,22.16
2023-04-21T00:40:07.717Z,22.13
2023-04-21T00:41:07.726Z,22.09
2023-04-21T00:42:07.719Z,22.16
2023-04-21T00:43:07.774Z,22.16
2023-04-21T00:44:07.750Z,22.16
2023-04-21T00:45:07.731Z,22.09
2023-04-21T00:46:07.733Z,22.14
2023-04-21T00:47:07.784Z,22.16
2023-04-21T00:48:07.828Z,22.06
2023-04-21T00:49:07.743Z,22.10
2023-04-21T00:50:07.750Z,22.07
2023-04-21T00:51:07.741Z,22.14
2023-04-21T00:52:07.750Z,22.07
2023-04-21T00:53:07.757Z,22.06
2023-04-21T00:54:07.759Z,22.13
2023-04-21T00:55:07.748Z,22.06
2023-04-21T00:56:07.751Z,22.12
2023-04-21T00:57:07.756Z,22.09
2023-04-21T00:58:07.759Z,22.16
2023-04-21T00:59:07.763Z,22.13
2023-04-21T01:00:07.764Z,22.12
2023-04-21T01:01:07.795Z,22.12
2023-04-21T01:02:07.945Z,22.13
2023-04-21T01:03:08.110Z,22.07
2023-04-21T01:04:07.945Z,22.19
2023-04-21T01:05:07.773Z,22.09
2023-04-21T01:06:07.771Z,22.13
2023-04-21T01:07:07.799Z,22.10
2023-04-21T01:08:07.784Z,22.13
2023-04-21T01:09:07.775Z,22.07
2023-04-21T01:10:07.793Z,22.16
2023-04-21T01:11:07.778Z,22.12
2023-04-21T01:12:07.789Z,22.10
2023-04-21T01:13:07.782Z,22.12
2023-04-21T01:14:07.789Z,22.13
2023-04-21T01:15:07.793Z,22.06
2023-04-21T01:16:07.802Z,22.17
2023-04-21T01:17:07.915Z,22.10
2023-04-21T01:18:07.825Z,22.12
2023-04-21T01:19:07.856Z,22.13
2023-04-21T01:20:07.803Z,22.07
2023-04-21T01:21:07.803Z,22.12
2023-04-21T01:22:07.810Z,22.12
2023-04-21T01:23:07.837Z,22.14
2023-04-21T01:24:07.823Z,22.10
2023-04-21T01:25:07.807Z,22.16
2023-04-21T01:26:07.811Z,22.14
2023-04-21T01:27:07.813Z,22.17
2023-04-21T01:28:07.816Z,22.17
2023-04-21T01:29:07.824Z,22.14
2023-04-21T01:30:07.830Z,22.17
2023-04-21T01:31:07.817Z,22.14
2023-04-21T01:32:07.981Z,22.10
2023-04-21T01:33:07.870Z,22.13
2023-04-21T01:34:07.830Z,22.16
2023-04-21T01:35:07.869Z,22.10
2023-04-21T01:36:07.836Z,22.13
2023-04-21T01:37:07.838Z,22.17
2023-04-21T01:38:07.845Z,22.14
2023-04-21T01:39:07.840Z,22.14
2023-04-21T01:40:07.837Z,22.13
2023-04-21T01:41:07.842Z,22.07
2023-04-21T01:42:07.845Z,22.16
2023-04-21T01:43:07.839Z,22.12
2023-04-21T01:44:07.852Z,22.12
2023-04-21T01:45:07.863Z,22.12
2023-04-21T01:46:07.980Z,22.10
2023-04-21T01:47:07.856Z,22.12
2023-04-21T01:48:07.895Z,22.12
2023-04-21T01:49:07.874Z,22.13
2023-04-21T01:50:07.870Z,22.10
2023-04-21T01:51:07.911Z,22.13
2023-04-21T01:52:07.870Z,22.13
2023-04-21T01:53:07.873Z,22.14
2023-04-21T01:54:07.864Z,22.10
2023-04-21T01:55:07.893Z,22.17
2023-04-21T01:56:07.869Z,22.13
2023-04-21T01:57:08.002Z,22.06
2023-04-21T01:58:07.876Z,22.13
2023-04-21T01:59:07.872Z,22.07
2023-04-21T02:00:07.884Z,22.14
2023-04-21T02:01:07.950Z,22.10
2023-04-21T02:02:08.037Z,22.12
2023-04-21T02:03:08.089Z,22.10
2023-04-21T02:04:08.108Z,22.10
2023-04-21T02:05:07.893Z,22.13
2023-04-21T02:06:07.893Z,22.06
2023-04-21T02:07:07.915Z,22.07
2023-04-21T02:08:07.904Z,22.10
2023-04-21T02:09:07.915Z,22.13
2023-04-21T02:10:07.894Z,22.09
2023-04-21T02:11:07.892Z,22.06
2023-04-21T02:12:07.910Z,22.04
2023-04-21T02:13:07.904Z,22.14
2023-04-21T02:14:07.913Z,22.09
2023-04-21T02:15:07.910Z,22.07
2023-04-21T02:16:13.794Z,22.16
2023-04-21T02:17:07.911Z,22.10
2023-04-21T02:18:07.972Z,22.09
2023-04-21T02:19:07.912Z,22.09
2023-04-21T02:20:07.913Z,22.04
2023-04-21T02:21:07.928Z,22.12
2023-04-21T02:22:07.908Z,22.10
2023-04-21T02:23:07.937Z,22.06
2023-04-21T02:24:07.914Z,22.10
2023-04-21T02:25:07.919Z,22.06
2023-04-21T02:26:07.939Z,22.12
2023-04-21T02:27:07.931Z,22.12
2023-04-21T02:28:07.933Z,22.10
2023-04-21T02:29:07.946Z,22.12
2023-04-21T02:30:07.953Z,22.09
2023-04-21T02:31:07.944Z,22.09
2023-04-21T02:33:07.995Z,22.09
2023-04-21T02:34:07.938Z,22.02
2023-04-21T02:35:07.952Z,22.10
2023-04-21T02:36:07.953Z,22.09
2023-04-21T02:37:07.946Z,22.12
2023-04-21T02:38:07.947Z,22.10
2023-04-21T02:39:07.966Z,22.10
2023-04-21T02:40:07.963Z,22.13
2023-04-21T02:41:07.951Z,22.10
2023-04-21T02:42:07.959Z,22.12
2023-04-21T02:43:07.951Z,22.12
2023-04-21T02:44:07.961Z,22.13
2023-04-21T02:45:07.958Z,22.07
2023-04-21T02:46:08.109Z,22.12
2023-04-21T02:47:08.265Z,22.12
2023-04-21T02:48:07.973Z,22.10
2023-04-21T02:49:07.990Z,22.12
2023-04-21T02:50:07.966Z,22.13
2023-04-21T02:51:07.968Z,22.12
2023-04-21T02:52:07.968Z,22.09
2023-04-21T02:53:07.978Z,22.10
2023-04-21T02:54:08.006Z,22.06
2023-04-21T02:55:08.004Z,22.13
2023-04-21T02:56:07.984Z,22.09
2023-04-21T02:57:07.993Z,22.12
2023-04-21T02:58:07.980Z,22.07
2023-04-21T02:59:07.986Z,22.01
2023-04-21T03:00:07.999Z,22.12
2023-04-21T03:01:08.009Z,22.14
2023-04-21T03:02:08.058Z,22.13
2023-04-21T03:03:08.432Z,22.06
2023-04-21T03:04:08.096Z,22.13
2023-04-21T03:05:07.998Z,22.16
2023-04-21T03:06:07.995Z,22.07
2023-04-21T03:07:07.997Z,22.06
2023-04-21T03:08:08.030Z,22.12
2023-04-21T03:09:08.004Z,22.14
2023-04-21T03:10:07.995Z,22.16
2023-04-21T03:11:08.025Z,22.09
2023-04-21T03:12:08.009Z,22.07
2023-04-21T03:13:08.317Z,22.13
2023-04-21T03:14:08.004Z,22.14
2023-04-21T03:15:08.011Z,22.14
2023-04-21T03:16:08.039Z,22.12
2023-04-21T03:17:08.029Z,22.09
2023-04-21T03:18:08.044Z,22.07
2023-04-21T03:19:08.166Z,22.01
2023-04-21T03:20:08.044Z,22.16
2023-04-21T03:21:08.021Z,21.99
2023-04-21T03:22:08.035Z,22.09
2023-04-21T03:23:08.027Z,21.99
2023-04-21T03:24:08.030Z,21.99
2023-04-21T03:25:08.075Z,22.12
2023-04-21T03:26:08.030Z,22.13
2023-04-21T03:27:10.422Z,22.14
2023-04-21T03:28:08.043Z,22.02
2023-04-21T03:29:08.040Z,22.01
2023-04-21T03:30:08.042Z,22.14
2023-04-21T03:31:08.050Z,22.06
2023-04-21T03:32:08.076Z,22.04
2023-04-21T03:33:08.115Z,22.07
2023-04-21T03:34:08.044Z,22.10
2023-04-21T03:35:08.202Z,22.13
2023-04-21T03:36:08.073Z,22.12
2023-04-21T03:37:08.067Z,22.16
2023-04-21T03:38:08.052Z,22.10
2023-04-21T03:39:19.319Z,22.02
2023-04-21T03:40:08.054Z,22.09
2023-04-21T03:41:08.064Z,22.10
2023-04-21T03:42:08.057Z,22.07
2023-04-21T03:43:08.087Z,22.07
2023-04-21T03:44:08.067Z,22.04
2023-04-21T03:45:08.063Z,22.12
2023-04-21T03:46:08.171Z,22.07
2023-04-21T03:47:08.075Z,22.06
2023-04-21T03:48:08.099Z,21.99
2023-04-21T03:49:08.069Z,22.06
2023-04-21T03:50:08.086Z,21.99
2023-04-21T03:51:08.085Z,22.10
2023-04-21T03:52:08.095Z,22.07
2023-04-21T03:53:08.078Z,22.13
2023-04-21T03:54:08.083Z,22.09
2023-04-21T03:55:08.085Z,22.14
2023-04-21T03:56:08.085Z,22.06
2023-04-21T03:57:08.083Z,22.10
2023-04-21T03:58:08.096Z,22.01
2023-04-21T03:59:08.124Z,22.04
2023-04-21T04:00:08.094Z,22.12
2023-04-21T04:01:08.090Z,22.12
2023-04-21T04:02:08.246Z,22.01
2023-04-21T04:03:08.210Z,22.02
2023-04-21T04:04:08.333Z,21.92
2023-04-21T04:05:08.169Z,21.92
2023-04-21T04:06:08.102Z,21.78
2023-04-21T04:07:08.120Z,21.75
2023-04-21T04:08:08.105Z,21.72
2023-04-21T04:09:08.110Z,21.72
2023-04-21T04:10:08.102Z,21.66
2023-04-21T04:11:08.123Z,21.64
2023-04-21T04:12:09.463Z,21.56
2023-04-21T04:13:08.115Z,21.75
2023-04-21T04:14:08.116Z,21.72
2023-04-21T04:15:08.147Z,21.83
2023-04-21T04:16:08.219Z,21.95
2023-04-21T04:17:08.124Z,21.97
2023-04-21T04:18:08.181Z,21.91
2023-04-21T04:19:08.143Z,21.99
2023-04-21T04:20:08.129Z,22.07
2023-04-21T04:21:08.135Z,22.10
2023-04-21T04:22:08.126Z,22.06
2023-04-21T04:23:08.139Z,22.02
2023-04-21T04:24:08.135Z,22.02
2023-04-21T04:25:08.134Z,22.07
2023-04-21T04:26:08.136Z,22.16
2023-04-21T04:27:08.140Z,22.06
2023-04-21T04:28:08.139Z,22.12
2023-04-21T04:29:08.142Z,22.02
2023-04-21T04:30:08.147Z,22.10
2023-04-21T04:31:08.205Z,22.07
2023-04-21T04:32:08.148Z,22.14
2023-04-21T04:33:08.200Z,22.12
2023-04-21T04:34:08.158Z,22.13
2023-04-21T04:35:08.190Z,22.09
2023-04-21T04:36:08.162Z,22.07
2023-04-21T04:37:08.185Z,22.04
2023-04-21T04:38:08.157Z,22.02
2023-04-21T04:39:09.455Z,22.13
2023-04-21T04:40:08.161Z,22.10
2023-04-21T04:41:08.162Z,22.12
2023-04-21T04:42:08.168Z,22.13
2023-04-21T04:43:08.167Z,22.17
2023-04-21T04:44:08.169Z,22.10
2023-04-21T04:45:08.172Z,22.13
2023-04-21T04:46:08.202Z,22.14
2023-04-21T04:47:08.234Z,22.06
2023-04-21T04:48:08.178Z,22.06
2023-04-21T04:49:08.172Z,22.10
2023-04-21T04:50:08.185Z,22.06
2023-04-21T04:51:08.186Z,22.13
2023-04-21T04:52:08.341Z,22.14
2023-04-21T04:53:08.173Z,22.06
2023-04-21T04:54:08.184Z,22.12
2023-04-21T04:55:08.213Z,22.12
2023-04-21T04:56:08.202Z,22.16
2023-04-21T04:57:08.188Z,22.12
2023-04-21T04:58:08.188Z,22.14
2023-04-21T04:59:08.192Z,22.09
2023-04-21T05:00:08.200Z,22.17
2023-04-21T05:01:08.213Z,22.16
2023-04-21T05:02:08.334Z,22.17
2023-04-21T05:03:08.427Z,22.19
2023-04-21T05:04:08.417Z,22.20
2023-04-21T05:05:08.385Z,22.19
2023-04-21T05:06:08.212Z,22.22
2023-04-21T05:07:08.220Z,22.17
2023-04-21T05:08:08.210Z,22.27
2023-04-21T05:09:08.210Z,22.22
2023-04-21T05:10:08.214Z,22.16
2023-04-21T05:11:08.215Z,22.12
2023-04-21T05:12:08.271Z,22.02
2023-04-21T05:13:08.225Z,21.08
2023-04-21T05:14:08.220Z,20.31
2023-04-21T05:15:08.221Z,20.35
2023-04-21T05:16:08.244Z,20.74
2023-04-21T05:17:08.232Z,20.93
2023-04-21T05:18:08.237Z,21.24
2023-04-21T05:19:08.252Z,20.95
2023-04-21T05:20:08.250Z,20.46
2023-04-21T05:21:08.255Z,19.95
2023-04-21T05:22:08.235Z,20.00
2023-04-21T05:23:08.240Z,20.47
2023-04-21T05:24:08.234Z,20.80
2023-04-21T05:25:08.235Z,21.09
2023-04-21T05:26:08.243Z,21.35
2023-04-21T05:27:08.260Z,21.51
2023-04-21T05:28:08.241Z,21.54
2023-04-21T05:29:08.251Z,21.71
2023-04-21T05:30:08.250Z,21.76
2023-04-21T05:31:08.262Z,21.81
2023-04-21T05:32:08.355Z,21.82
2023-04-21T05:33:08.261Z,21.85
2023-04-21T05:34:08.254Z,21.97
2023-04-21T05:35:08.293Z,21.97
2023-04-21T05:36:08.268Z,21.95
2023-04-21T05:37:08.258Z,21.81
2023-04-21T05:38:08.259Z,21.83
2023-04-21T05:39:08.260Z,21.79
2023-04-21T05:40:08.261Z,21.81
2023-04-21T05:41:08.260Z,21.24
2023-04-21T05:42:08.265Z,20.54
2023-04-21T05:43:08.268Z,19.94
2023-04-21T05:44:08.271Z,19.72
2023-04-21T05:45:08.269Z,19.58
2023-04-21T05:46:08.345Z,19.55
2023-04-21T05:47:08.275Z,19.50
2023-04-21T05:48:08.429Z,19.32
2023-04-21T05:49:08.280Z,19.29
2023-04-21T05:50:08.282Z,19.23
2023-04-21T05:51:08.308Z,19.17
2023-04-21T05:52:08.281Z,19.25
2023-04-21T05:53:08.279Z,19.28
2023-04-21T05:54:08.284Z,19.21
2023-04-21T05:55:08.283Z,19.18
2023-04-21T05:56:08.284Z,19.08
2023-04-21T05:57:08.286Z,19.02
2023-04-21T05:58:08.282Z,19.15
2023-04-21T05:59:08.285Z,19.36
2023-04-21T06:00:08.292Z,19.25
2023-04-21T06:01:08.289Z,19.24
2023-04-21T06:02:08.427Z,19.28
2023-04-21T06:03:08.419Z,19.36
2023-04-21T06:04:08.509Z,19.47
2023-04-21T06:05:08.476Z,19.20
2023-04-21T06:06:08.294Z,19.35
2023-04-21T06:07:08.332Z,19.25
2023-04-21T06:08:08.304Z,19.35
2023-04-21T06:09:08.300Z,19.38
2023-04-21T06:10:08.304Z,19.32
2023-04-21T06:11:08.316Z,19.23
2023-04-21T06:12:08.302Z,19.24
2023-04-21T06:13:08.301Z,19.25
2023-04-21T06:14:08.300Z,19.21
2023-04-21T06:15:08.303Z,19.18
2023-04-21T06:16:08.372Z,19.13
2023-04-21T06:17:08.325Z,19.14
2023-04-21T06:18:08.328Z,19.38
2023-04-21T06:19:08.320Z,19.43
2023-04-21T06:20:08.320Z,19.38
2023-04-21T06:21:08.325Z,19.35
2023-04-21T06:22:08.329Z,19.21
2023-04-21T06:23:08.349Z,19.38
2023-04-21T06:24:08.340Z,19.43
2023-04-21T06:25:08.321Z,19.33
2023-04-21T06:26:08.321Z,19.48
2023-04-21T06:27:08.478Z,19.53
2023-04-21T06:28:08.326Z,19.48
2023-04-21T06:29:08.336Z,19.36
2023-04-21T06:30:08.330Z,19.36
2023-04-21T06:31:09.250Z,19.33
2023-04-21T06:32:08.496Z,19.32
2023-04-21T06:33:08.379Z,19.36
2023-04-21T06:34:08.336Z,19.32
2023-04-21T06:35:08.334Z,19.31
2023-04-21T06:36:08.335Z,19.32
2023-04-21T06:37:08.327Z,19.47
2023-04-21T06:38:08.333Z,19.48
2023-04-21T06:39:08.375Z,19.40
2023-04-21T06:40:08.341Z,19.42
2023-04-21T06:41:08.340Z,19.39
2023-04-21T06:42:08.336Z,19.43
2023-04-21T06:43:08.340Z,19.54
2023-04-21T06:44:08.338Z,19.58
2023-04-21T06:45:08.337Z,19.47
2023-04-21T06:46:08.342Z,19.54
2023-04-21T06:47:08.398Z,19.48
2023-04-21T06:48:08.372Z,19.55
2023-04-21T06:49:08.340Z,19.58
2023-04-21T06:50:08.347Z,19.65
2023-04-21T06:51:08.341Z,19.57
2023-04-21T06:52:08.352Z,19.57
2023-04-21T06:53:08.366Z,19.58
2023-04-21T06:54:08.362Z,19.60
2023-04-21T06:55:08.428Z,19.57
2023-04-21T06:56:08.351Z,19.57
2023-04-21T06:57:08.367Z,19.58
2023-04-21T06:58:08.349Z,19.61
2023-04-21T06:59:08.367Z,19.61
2023-04-21T07:00:08.357Z,19.68
2023-04-21T07:01:08.402Z,19.78
2023-04-21T07:02:08.392Z,19.97
2023-04-21T07:03:08.475Z,19.97
2023-04-21T07:04:08.417Z,20.00
2023-04-21T07:05:08.357Z,19.95
2023-04-21T07:06:08.351Z,19.98
2023-04-21T07:07:08.355Z,20.08
2023-04-21T07:08:08.367Z,20.21
2023-04-21T07:09:08.366Z,20.30
2023-04-21T07:10:08.361Z,20.21
2023-04-21T07:11:08.398Z,20.05
2023-04-21T07:12:08.363Z,20.15
2023-04-21T07:13:10.045Z,20.10
2023-04-21T07:14:08.364Z,20.23
2023-04-21T07:15:08.363Z,20.20
2023-04-21T07:16:08.422Z,20.12
2023-04-21T07:17:08.406Z,20.05
2023-04-21T07:18:08.445Z,20.06
2023-04-21T07:19:08.366Z,20.24
2023-04-21T07:20:08.381Z,20.31
2023-04-21T07:21:08.372Z,20.16
2023-04-21T07:22:08.377Z,20.25
2023-04-21T07:23:08.370Z,20.35
2023-04-21T07:24:08.406Z,20.25
2023-04-21T07:25:08.396Z,20.16
2023-04-21T07:26:08.405Z,20.10
2023-04-21T07:27:08.398Z,20.08
2023-04-21T07:28:08.392Z,20.03
2023-04-21T07:29:08.372Z,20.21
2023-04-21T07:30:08.385Z,20.09
2023-04-21T07:31:08.414Z,20.08
2023-04-21T07:32:08.380Z,20.06
2023-04-21T07:33:08.422Z,20.12
2023-04-21T07:34:08.384Z,20.23
2023-04-21T07:35:08.389Z,20.23
2023-04-21T07:36:08.384Z,20.10
2023-04-21T07:37:08.393Z,20.08
2023-04-21T07:38:08.396Z,20.08
2023-04-21T07:39:08.384Z,20.05
2023-04-21T07:40:08.390Z,20.02
2023-04-21T07:41:08.385Z,20.05
2023-04-21T07:42:08.458Z,20.10
2023-04-21T07:43:08.415Z,20.09
2023-04-21T07:44:08.386Z,20.08
2023-04-21T07:45:08.387Z,20.18
2023-04-21T07:46:08.711Z,20.08
2023-04-21T07:47:08.399Z,20.09
2023-04-21T07:48:08.448Z,20.10
2023-04-21T07:49:08.398Z,20.10
2023-04-21T07:50:08.658Z,20.13
2023-04-21T07:51:08.404Z,20.12
2023-04-21T07:52:08.394Z,19.98
2023-04-21T07:53:08.401Z,20.06
2023-04-21T07:54:08.415Z,20.02
2023-04-21T07:55:08.397Z,20.05
2023-04-21T07:56:08.402Z,20.03
2023-04-21T07:57:08.396Z,19.93
2023-04-21T07:58:08.402Z,20.03
2023-04-21T07:59:08.422Z,20.09
2023-04-21T08:00:08.432Z,20.09
2023-04-21T08:01:08.412Z,20.06
2023-04-21T08:02:08.547Z,20.10
2023-04-21T08:03:08.672Z,20.12
2023-04-21T08:04:08.535Z,20.13
2023-04-21T08:05:08.722Z,20.06
2023-04-21T08:06:08.509Z,20.10
2023-04-21T08:07:08.917Z,20.03
2023-04-21T08:08:08.425Z,20.10
2023-04-21T08:09:08.435Z,20.08
2023-04-21T08:10:08.407Z,20.16
2023-04-21T08:11:10.767Z,20.27
2023-04-21T08:12:08.412Z,20.30
2023-04-21T08:13:08.438Z,20.28
2023-04-21T08:14:08.464Z,20.35
2023-04-21T08:15:08.689Z,20.39
2023-04-21T08:16:08.449Z,20.38
2023-04-21T08:17:08.760Z,20.43
2023-04-21T08:18:08.508Z,20.49
2023-04-21T08:19:08.420Z,20.39
2023-04-21T08:20:08.419Z,20.33
2023-04-21T08:21:08.435Z,20.33
2023-04-21T08:22:08.453Z,20.35
2023-04-21T08:23:08.512Z,20.38
2023-04-21T08:24:08.456Z,20.47
2023-04-21T08:25:08.424Z,20.56
2023-04-21T08:26:08.432Z,20.50
2023-04-21T08:27:08.435Z,20.47
2023-04-21T08:28:08.448Z,20.49
2023-04-21T08:29:08.448Z,20.53
2023-04-21T08:30:08.432Z,20.56
2023-04-21T08:31:08.487Z,20.61
2023-04-21T08:32:08.849Z,20.64
2023-04-21T08:33:08.508Z,20.62
2023-04-21T08:34:08.458Z,20.58
2023-04-21T08:35:08.437Z,20.58
2023-04-21T08:36:18.139Z,20.49
2023-04-21T08:37:08.437Z,20.46
2023-04-21T08:38:08.440Z,20.51
2023-04-21T08:39:08.448Z,20.49
2023-04-21T08:40:08.437Z,20.49
2023-04-21T08:41:08.439Z,20.47
2023-04-21T08:42:08.439Z,20.53
2023-04-21T08:43:08.443Z,20.56
2023-04-21T08:44:08.445Z,20.64
2023-04-21T08:45:08.451Z,20.76
2023-04-21T08:46:08.515Z,20.74
2023-04-21T08:47:08.467Z,20.77
2023-04-21T08:48:08.472Z,20.83
2023-04-21T08:49:08.449Z,20.80
2023-04-21T08:50:08.449Z,20.74
2023-04-21T08:51:08.454Z,20.86
2023-04-21T08:52:08.454Z,20.89
2023-04-21T08:53:08.453Z,20.80
2023-04-21T08:54:08.459Z,20.79
2023-04-21T08:55:08.461Z,20.74
2023-04-21T08:56:11.433Z,20.77
2023-04-21T08:57:15.087Z,20.80
2023-04-21T08:58:08.469Z,20.95
2023-04-21T08:59:08.461Z,21.11
2023-04-21T09:00:08.510Z,21.06
2023-04-21T09:01:08.575Z,20.96
2023-04-21T09:02:08.552Z,20.96
2023-04-21T09:03:16.175Z,21.04
2023-04-21T09:04:08.666Z,20.90
2023-04-21T09:05:08.741Z,20.87
2023-04-21T09:06:09.401Z,20.87
2023-04-21T09:07:08.533Z,20.91
2023-04-21T09:08:08.482Z,20.86
2023-04-21T09:09:08.475Z,20.90
2023-04-21T09:10:08.490Z,20.87
2023-04-21T09:11:08.491Z,20.91
2023-04-21T09:12:08.481Z,20.99
2023-04-21T09:13:08.484Z,21.14
2023-04-21T09:14:08.486Z,21.26
2023-04-21T09:15:08.483Z,21.41
2023-04-21T09:16:08.830Z,21.36
2023-04-21T09:17:08.501Z,21.42
2023-04-21T09:18:08.514Z,21.54
2023-04-21T09:19:08.579Z,21.61
2023-04-21T09:20:08.496Z,21.69
2023-04-21T09:21:08.495Z,21.66
2023-04-21T09:22:08.494Z,21.75
2023-04-21T09:23:08.497Z,21.83
2023-04-21T09:24:08.499Z,21.79
2023-04-21T09:25:08.515Z,21.85
2023-04-21T09:26:08.500Z,21.79
2023-04-21T09:27:08.504Z,21.91
2023-04-21T09:28:08.514Z,21.94
2023-04-21T09:29:08.522Z,22.07
2023-04-21T09:30:08.514Z,22.10
2023-04-21T09:31:08.547Z,22.09
2023-04-21T09:32:10.898Z,22.10
2023-04-21T09:33:20.133Z,22.28
2023-04-21T09:34:08.573Z,22.44
2023-04-21T09:35:08.550Z,22.49
2023-04-21T09:36:08.528Z,22.54
2023-04-21T09:37:08.536Z,22.83
2023-04-21T09:38:08.527Z,22.96
2023-04-21T09:40:08.531Z,23.38
2023-04-21T09:41:08.540Z,23.39
2023-04-21T09:42:08.535Z,23.64
2023-04-21T09:43:08.547Z,23.77
2023-04-21T09:44:08.574Z,23.86
2023-04-21T09:46:08.586Z,23.87
2023-04-21T09:47:08.564Z,23.80
2023-04-21T09:48:08.900Z,23.71
2023-04-21T09:49:08.605Z,23.60
2023-04-21T09:50:12.239Z,23.55
2023-04-21T09:52:18.773Z,23.60
2023-04-21T09:53:08.611Z,23.38
2023-04-21T09:54:15.573Z,23.12
2023-04-21T09:55:08.628Z,23.01
2023-04-21T09:56:08.626Z,22.80
2023-04-21T09:57:08.634Z,22.71
2023-04-21T09:58:08.638Z,22.82
2023-04-21T09:59:08.636Z,22.87
2023-04-21T10:00:08.653Z,23.02
2023-04-21T10:01:08.796Z,23.05
2023-04-21T10:02:08.955Z,23.05
2023-04-21T10:03:08.819Z,23.05
2023-04-21T10:04:08.866Z,23.08
2023-04-21T10:05:08.760Z,22.99
2023-04-21T10:06:08.833Z,22.90
2023-04-21T10:07:08.703Z,22.89
2023-04-21T10:08:08.681Z,22.92
2023-04-21T10:09:08.685Z,23.01
2023-04-21T10:10:08.708Z,22.87
2023-04-21T10:11:08.701Z,22.89
2023-04-21T10:12:09.739Z,22.93
2023-04-21T10:13:08.697Z,22.93
2023-04-21T10:14:08.724Z,22.90
2023-04-21T10:15:08.706Z,22.97
2023-04-21T10:16:08.807Z,22.94
2023-04-21T10:17:08.714Z,22.78
2023-04-21T10:18:08.721Z,22.64
2023-04-21T10:19:08.728Z,22.49
2023-04-21T10:20:08.740Z,22.60
2023-04-21T10:21:08.742Z,22.54
2023-04-21T10:22:08.749Z,22.41
2023-04-21T10:23:08.766Z,22.43
2023-04-21T10:24:08.740Z,22.44
2023-04-21T10:25:08.738Z,22.29
2023-04-21T10:26:08.749Z,22.28
2023-04-21T10:27:08.749Z,22.17
2023-04-21T10:28:08.756Z,22.20
2023-04-21T10:29:08.763Z,22.43
2023-04-21T10:30:08.765Z,22.32
2023-04-21T10:31:08.840Z,22.41
2023-04-21T10:32:09.594Z,22.50
2023-04-21T10:33:08.809Z,22.52
2023-04-21T10:34:08.781Z,22.54
2023-04-21T10:35:08.781Z,22.65
2023-04-21T10:36:08.779Z,22.67
2023-04-21T10:37:08.779Z,22.50
2023-04-21T10:38:08.790Z,22.49
2023-04-21T10:39:08.815Z,22.41
2023-04-21T10:40:08.793Z,22.39
2023-04-21T10:41:08.796Z,22.49
2023-04-21T10:42:08.805Z,22.50
2023-04-21T10:43:08.811Z,22.41
2023-04-21T10:44:08.803Z,22.23
2023-04-21T10:45:08.815Z,22.37
2023-04-21T10:46:08.822Z,22.31
2023-04-21T10:47:08.888Z,22.23
2023-04-21T10:48:08.894Z,22.13
2023-04-21T10:49:08.830Z,22.34
2023-04-21T10:50:08.821Z,22.23
2023-04-21T10:51:08.827Z,22.35
2023-04-21T10:52:08.828Z,22.39
2023-04-21T10:53:08.832Z,22.28
2023-04-21T10:54:08.842Z,22.28
2023-04-21T10:55:08.862Z,22.39
2023-04-21T10:56:08.840Z,22.29
2023-04-21T10:57:08.853Z,22.23
2023-04-21T10:58:08.846Z,22.20
2023-04-21T10:59:08.848Z,22.13
2023-04-21T11:00:08.852Z,22.29
2023-04-21T11:01:08.892Z,22.14
2023-04-21T11:02:08.913Z,22.12
2023-04-21T11:03:09.123Z,22.22
2023-04-21T11:04:09.020Z,22.14
2023-04-21T11:05:08.943Z,22.27
2023-04-21T11:06:08.882Z,22.19
2023-04-21T11:07:08.899Z,22.37
2023-04-21T11:08:08.878Z,22.23
2023-04-21T11:09:08.880Z,22.07
2023-04-21T11:10:08.886Z,22.10
2023-04-21T11:11:08.967Z,21.98
2023-04-21T11:12:08.882Z,22.04
2023-04-21T11:13:08.896Z,21.99
2023-04-21T11:14:08.888Z,21.95
2023-04-21T11:15:08.897Z,21.98
2023-04-21T11:16:08.968Z,21.92
2023-04-21T11:17:08.956Z,21.90
2023-04-21T11:18:08.968Z,21.85
2023-04-21T11:19:08.899Z,21.83
2023-04-21T11:20:08.898Z,21.78
2023-04-21T11:21:08.909Z,21.79
2023-04-21T11:22:08.914Z,21.66
2023-04-21T11:23:08.915Z,21.78
2023-04-21T11:24:08.917Z,21.90
2023-04-21T11:25:08.912Z,21.66
2023-04-21T11:26:08.916Z,21.64
2023-04-21T11:27:08.936Z,21.71
2023-04-21T11:28:08.915Z,21.51
2023-04-21T11:29:08.934Z,21.50
2023-04-21T11:30:08.926Z,21.50
2023-04-21T11:31:08.963Z,21.57
2023-04-21T11:32:08.937Z,21.66
2023-04-21T11:33:08.988Z,21.71
2023-04-21T11:34:08.932Z,21.69
2023-04-21T11:35:08.943Z,21.66
2023-04-21T11:36:08.939Z,21.69
2023-04-21T11:37:08.962Z,21.56
2023-04-21T11:38:08.950Z,21.54
2023-04-21T11:39:08.948Z,21.44
2023-04-21T11:40:08.953Z,21.21
2023-04-21T11:41:08.953Z,21.34
2023-04-21T11:42:08.958Z,21.27
2023-04-21T11:43:08.981Z,21.26
2023-04-21T11:44:08.969Z,21.29
2023-04-21T11:45:08.972Z,21.26
2023-04-21T11:46:09.017Z,21.41
2023-04-21T11:47:09.017Z,21.32
2023-04-21T11:48:09.036Z,21.26
2023-04-21T11:49:08.975Z,21.38
2023-04-21T11:50:08.982Z,21.35
2023-04-21T11:51:08.980Z,21.36
2023-04-21T11:52:08.980Z,21.38
2023-04-21T11:53:08.984Z,21.36
2023-04-21T11:54:08.986Z,21.38
2023-04-21T11:55:08.989Z,21.24
2023-04-21T11:56:08.994Z,21.30
2023-04-21T11:57:09.078Z,21.19
2023-04-21T11:58:08.994Z,21.32
2023-04-21T11:59:09.017Z,21.27
2023-04-21T12:00:09.005Z,21.38
2023-04-21T12:01:09.052Z,21.57
2023-04-21T12:02:09.075Z,21.66
2023-04-21T12:03:09.240Z,21.53
2023-04-21T12:04:09.165Z,21.53
2023-04-21T12:05:09.487Z,21.50
2023-04-21T12:06:09.103Z,21.38
2023-04-21T12:07:09.060Z,21.32
2023-04-21T12:08:09.015Z,21.27
2023-04-21T12:09:09.012Z,21.35
2023-04-21T12:10:09.130Z,21.32
2023-04-21T12:11:09.077Z,21.27
2023-04-21T12:12:09.025Z,21.34
2023-04-21T12:13:09.021Z,21.23
2023-04-21T12:14:09.027Z,21.34
2023-04-21T12:15:09.057Z,21.26
2023-04-21T12:16:09.045Z,21.30
2023-04-21T12:17:09.035Z,21.34
2023-04-21T12:18:09.094Z,21.51
2023-04-21T12:19:09.047Z,21.50
2023-04-21T12:20:09.140Z,21.56
2023-04-21T12:21:09.094Z,21.45
2023-04-21T12:22:09.050Z,21.46
2023-04-21T12:23:09.038Z,21.38
2023-04-21T12:24:09.044Z,21.32
2023-04-21T12:25:09.056Z,21.29
2023-04-21T12:26:09.056Z,21.29
2023-04-21T12:27:09.049Z,21.23
2023-04-21T12:28:09.078Z,21.30
2023-04-21T12:29:09.056Z,21.45
2023-04-21T12:30:09.094Z,21.45
2023-04-21T12:31:09.194Z,21.54
2023-04-21T12:32:09.335Z,21.42
2023-04-21T12:33:09.150Z,21.48
2023-04-21T12:34:09.119Z,21.36
2023-04-21T12:35:09.074Z,21.50
2023-04-21T12:36:09.067Z,21.53
2023-04-21T12:37:09.090Z,21.51
2023-04-21T12:38:09.072Z,21.42
2023-04-21T12:39:09.076Z,21.56
2023-04-21T12:40:09.129Z,21.69
2023-04-21T12:41:09.080Z,21.63
2023-04-21T12:42:09.087Z,21.74
2023-04-21T12:43:09.097Z,21.67
2023-04-21T12:44:09.086Z,21.67
2023-04-21T12:45:09.087Z,21.69
2023-04-21T12:46:09.118Z,21.82
2023-04-21T12:47:09.110Z,21.81
2023-04-21T12:48:09.151Z,21.74
2023-04-21T12:49:09.105Z,21.74
2023-04-21T12:50:09.156Z,21.75
2023-04-21T12:51:09.115Z,21.81
2023-04-21T12:52:09.153Z,21.82
2023-04-21T12:53:09.101Z,21.81
2023-04-21T12:54:09.108Z,22.02
2023-04-21T12:55:09.122Z,22.12
2023-04-21T12:56:09.118Z,22.07